Time;durP1;ratioP1;P1;durP2;ratioP2;P2;SDS_P1;SDS_P2;PMS_P1;PMS_P2;Temp;Humidity;BMP_temperature;BMP_pressure;BME280_temperature;BME280_humidity;BME280_pressure;Samples;Min_cycle;Max_cycle;Signal;HPM_P1;HPM_P2
2022/08/17 00:00:18;;;;;;;27.27;22.58;;;18.80;99.90;;;;;;4991473;28;20386;-71
2022/08/17 00:03:10;;;;;;;25.00;22.10;;;18.70;99.90;;;;;;4995256;28;20366;-71
2022/08/17 00:05:41;;;;;;;30.55;22.52;;;18.60;99.90;;;;;;4986142;28;20061;-72
2022/08/17 00:08:07;;;;;;;32.70;24.52;;;18.50;99.90;;;;;;4991275;28;20100;-72
2022/08/17 00:10:34;;;;;;;37.28;28.58;;;18.50;99.90;;;;;;4994990;28;20129;-72
2022/08/17 00:13:05;;;;;;;30.05;23.73;;;18.60;99.90;;;;;;4991146;28;20494;-72
2022/08/17 00:15:30;;;;;;;33.00;23.47;;;18.50;99.90;;;;;;4995576;28;20038;-71
2022/08/17 00:17:56;;;;;;;32.40;23.23;;;18.50;99.90;;;;;;4997131;28;20295;-71
2022/08/17 00:20:22;;;;;;;39.05;23.83;;;18.40;99.90;;;;;;4996256;28;20084;-71
2022/08/17 00:22:47;;;;;;;31.73;24.75;;;18.50;99.90;;;;;;4985351;28;20069;-71
2022/08/17 00:25:18;;;;;;;30.75;25.15;;;18.50;99.90;;;;;;4991086;28;20035;-72
2022/08/17 00:27:44;;;;;;;36.88;26.80;;;18.50;99.90;;;;;;4981108;28;20054;-71
2022/08/17 00:30:11;;;;;;;34.80;25.67;;;18.40;99.90;;;;;;4989124;28;20030;-72
2022/08/17 00:32:43;;;;;;;38.97;29.33;;;18.40;99.90;;;;;;4996762;28;20070;-72
2022/08/17 00:35:12;;;;;;;40.00;30.95;;;18.40;99.90;;;;;;4987091;28;20039;-72
2022/08/17 00:37:38;;;;;;;43.65;31.02;;;18.40;99.90;;;;;;4994428;28;20086;-71
2022/08/17 00:40:06;;;;;;;51.80;32.55;;;18.40;99.90;;;;;;4996464;28;20042;-71
2022/08/17 00:42:32;;;;;;;46.97;33.55;;;18.40;99.90;;;;;;4996612;28;20104;-70
2022/08/17 00:44:58;;;;;;;45.22;33.05;;;18.30;99.90;;;;;;4983079;28;20065;-70
2022/08/17 00:47:24;;;;;;;51.13;32.78;;;18.40;99.90;;;;;;4988756;28;20077;-70
2022/08/17 00:49:49;;;;;;;35.92;28.80;;;18.40;99.90;;;;;;4993352;28;20093;-69
2022/08/17 00:52:20;;;;;;;40.88;28.02;;;18.40;99.90;;;;;;4988154;28;20049;-70
2022/08/17 00:54:51;;;;;;;28.55;22.17;;;18.30;99.90;;;;;;4980700;28;20027;-70
2022/08/17 00:57:18;;;;;;;30.42;21.45;;;18.10;99.90;;;;;;4982253;28;20547;-70
2022/08/17 00:59:50;;;;;;;24.83;21.48;;;18.00;99.90;;;;;;4985422;28;20039;-70
2022/08/17 01:02:18;;;;;;;30.63;22.60;;;17.90;99.90;;;;;;4981369;28;20030;-70
2022/08/17 01:04:46;;;;;;;33.95;23.73;;;17.80;99.90;;;;;;4983205;28;20054;-70
2022/08/17 01:07:13;;;;;;;32.30;24.30;;;17.70;99.90;;;;;;4983008;28;20031;-69
2022/08/17 01:09:40;;;;;;;31.90;25.98;;;17.70;99.90;;;;;;4992652;28;20147;-70
2022/08/17 01:12:10;;;;;;;32.58;25.48;;;17.60;99.90;;;;;;4991987;28;20034;-69
2022/08/17 01:14:37;;;;;;;32.95;25.33;;;17.50;99.90;;;;;;4984731;28;20200;-70
2022/08/17 01:17:03;;;;;;;32.63;23.67;;;17.50;99.90;;;;;;4993001;28;20075;-70
2022/08/17 01:19:36;;;;;;;30.48;21.50;;;17.50;99.90;;;;;;4993225;28;20053;-71
2022/08/17 01:22:10;;;;;;;29.55;23.00;;;17.40;99.90;;;;;;4992126;28;20045;-70
2022/08/17 01:24:39;;;;;;;27.45;21.33;;;17.30;99.90;;;;;;4993078;28;20245;-70
2022/08/17 01:27:06;;;;;;;27.23;22.00;;;17.20;99.90;;;;;;4992524;28;20030;-70
2022/08/17 01:29:32;;;;;;;25.73;20.17;;;17.20;99.90;;;;;;4988334;28;20022;-70
2022/08/17 01:32:02;;;;;;;25.38;19.30;;;17.20;99.90;;;;;;4992863;28;20057;-70
2022/08/17 01:34:28;;;;;;;28.40;20.83;;;17.20;99.90;;;;;;4974087;28;20037;-70
2022/08/17 01:36:54;;;;;;;26.38;20.92;;;17.20;99.90;;;;;;4982126;28;20069;-69
2022/08/17 01:39:36;;;;;;;29.13;23.08;;;17.20;99.90;;;;;;4991425;28;20132;-69
2022/08/17 01:42:33;;;;;;;36.53;24.88;;;17.20;99.90;;;;;;4988310;28;20042;-69
2022/08/17 01:45:12;;;;;;;33.80;22.83;;;17.20;99.90;;;;;;4977314;28;20030;-70
2022/08/17 01:47:39;;;;;;;28.15;19.73;;;17.20;99.90;;;;;;4991426;28;20066;-70
2022/08/17 01:50:11;;;;;;;26.33;20.20;;;17.20;99.90;;;;;;4991553;28;20089;-70
2022/08/17 01:52:38;;;;;;;24.70;18.50;;;17.20;99.90;;;;;;4990916;28;20485;-70
2022/08/17 01:55:05;;;;;;;23.80;19.40;;;17.20;99.90;;;;;;4991126;28;20085;-70
2022/08/17 01:57:30;;;;;;;24.52;20.52;;;17.20;99.90;;;;;;4990734;28;20487;-69
2022/08/17 01:59:56;;;;;;;30.25;21.30;;;17.10;99.90;;;;;;4992563;28;20172;-69
2022/08/17 02:02:22;;;;;;;29.13;22.65;;;17.00;99.90;;;;;;4992261;28;20053;-70
2022/08/17 02:04:48;;;;;;;28.10;21.67;;;17.00;99.90;;;;;;4982343;28;20062;-68
2022/08/17 02:07:14;;;;;;;25.67;21.52;;;16.90;99.90;;;;;;4991941;28;20022;-70
2022/08/17 02:09:39;;;;;;;27.40;21.52;;;16.90;99.90;;;;;;4979609;28;20512;-70
2022/08/17 02:12:06;;;;;;;28.02;21.30;;;16.80;99.90;;;;;;4977583;28;20039;-70
2022/08/17 02:14:31;;;;;;;26.63;21.58;;;16.80;99.90;;;;;;4991035;28;20034;-70
2022/08/17 02:16:57;;;;;;;28.58;22.27;;;16.70;99.90;;;;;;4988425;28;20031;-70
2022/08/17 02:19:23;;;;;;;30.38;22.65;;;16.60;99.90;;;;;;4992281;28;20106;-70
2022/08/17 02:21:51;;;;;;;30.40;22.80;;;16.60;99.90;;;;;;4991391;28;20034;-70
2022/08/17 02:24:27;;;;;;;29.95;22.85;;;16.50;99.90;;;;;;4991902;28;20028;-70
2022/08/17 02:26:52;;;;;;;34.33;23.02;;;16.60;99.90;;;;;;4988338;28;20092;-70
2022/08/17 02:29:18;;;;;;;26.58;23.25;;;16.50;99.90;;;;;;4989528;28;20018;-70
2022/08/17 02:31:44;;;;;;;29.48;23.13;;;16.50;99.90;;;;;;4988472;28;20085;-69
2022/08/17 02:34:11;;;;;;;29.17;23.02;;;16.50;99.90;;;;;;4977646;28;20056;-69
2022/08/17 02:36:36;;;;;;;34.20;25.83;;;16.40;99.90;;;;;;4986800;28;20125;-69
2022/08/17 02:39:09;;;;;;;34.58;26.30;;;16.40;99.90;;;;;;4980901;28;20109;-68
2022/08/17 02:41:35;;;;;;;34.72;26.75;;;16.40;99.90;;;;;;4984002;28;20036;-68
2022/08/17 02:44:01;;;;;;;41.60;29.77;;;16.40;99.90;;;;;;4980604;28;20039;-69
2022/08/17 02:46:29;;;;;;;45.17;30.80;;;16.40;99.90;;;;;;4989768;28;20072;-69
2022/08/17 02:48:54;;;;;;;49.22;32.42;;;16.50;99.90;;;;;;4991206;28;20038;-70
2022/08/17 02:51:20;;;;;;;47.78;31.02;;;16.60;99.90;;;;;;4990468;28;20568;-70
2022/08/17 02:53:46;;;;;;;42.35;30.17;;;16.50;99.90;;;;;;4990457;28;20027;-70
2022/08/17 02:56:11;;;;;;;35.83;27.27;;;16.60;99.90;;;;;;4975091;28;20427;-71
2022/08/17 02:58:37;;;;;;;36.72;26.20;;;16.60;99.90;;;;;;4974095;28;20045;-70
2022/08/17 03:01:05;;;;;;;34.00;25.17;;;16.60;99.90;;;;;;4977134;28;20844;-70
2022/08/17 03:03:30;;;;;;;36.90;27.63;;;16.50;99.90;;;;;;4990957;28;20038;-70
2022/08/17 03:05:56;;;;;;;39.85;28.15;;;16.50;99.90;;;;;;4979355;28;20469;-71
2022/08/17 03:08:22;;;;;;;38.72;28.48;;;16.50;99.90;;;;;;4983912;28;20027;-70
2022/08/17 03:10:49;;;;;;;42.25;30.17;;;16.60;99.90;;;;;;4989632;28;20497;-69
2022/08/17 03:13:15;;;;;;;41.00;29.63;;;16.50;99.90;;;;;;4984555;28;20038;-70
2022/08/17 03:15:45;;;;;;;35.97;26.40;;;16.50;99.90;;;;;;4986549;28;20041;-70
2022/08/17 03:18:13;;;;;;;32.88;25.23;;;16.50;99.90;;;;;;4979925;28;20137;-69
2022/08/17 03:20:40;;;;;;;42.47;28.88;;;16.50;99.90;;;;;;4991054;28;20061;-70
2022/08/17 03:23:05;;;;;;;37.25;26.35;;;16.50;99.90;;;;;;4988364;28;20026;-70
2022/08/17 03:25:35;;;;;;;33.92;24.98;;;16.50;99.90;;;;;;4989733;28;20037;-70
2022/08/17 03:28:01;;;;;;;36.00;25.98;;;16.50;99.90;;;;;;4985843;28;20084;-71
2022/08/17 03:30:28;;;;;;;36.45;26.92;;;16.50;99.90;;;;;;4972860;28;20498;-70
2022/08/17 03:32:57;;;;;;;47.85;34.15;;;16.50;99.90;;;;;;4983629;28;20773;-70
2022/08/17 03:35:29;;;;;;;48.97;33.80;;;16.60;99.90;;;;;;4990407;28;20107;-70
2022/08/17 03:37:55;;;;;;;52.90;33.95;;;16.80;99.90;;;;;;4984039;28;20034;-72
2022/08/17 03:40:21;;;;;;;53.42;34.40;;;16.90;99.90;;;;;;4990986;28;20027;-70
2022/08/17 03:42:47;;;;;;;45.80;34.22;;;16.90;99.90;;;;;;4997232;23;20095;-69
2022/08/17 03:45:16;;;;;;;49.30;34.60;;;17.00;99.90;;;;;;4981682;28;20023;-69
2022/08/17 03:58:48;;;;;;;41.22;28.42;;;16.80;99.90;;;;;;4975505;28;20102;-68
2022/08/17 04:01:16;;;;;;;39.85;28.20;;;16.70;99.90;;;;;;4969038;28;20030;-67
2022/08/17 04:03:42;;;;;;;36.42;28.75;;;16.60;99.90;;;;;;4973158;28;20039;-67
2022/08/17 04:06:07;;;;;;;37.53;28.30;;;16.60;99.90;;;;;;4970411;28;20077;-68
2022/08/17 04:08:33;;;;;;;35.45;27.13;;;16.60;99.90;;;;;;4974394;28;20033;-68
2022/08/17 04:11:00;;;;;;;40.35;27.05;;;16.60;99.90;;;;;;4975234;28;20452;-68
2022/08/17 04:13:26;;;;;;;37.58;26.73;;;16.50;99.90;;;;;;4971585;28;20109;-68
2022/08/17 04:15:52;;;;;;;37.38;28.30;;;16.40;99.90;;;;;;4981289;28;20117;-69
2022/08/17 04:18:18;;;;;;;38.90;26.90;;;16.40;99.90;;;;;;4965417;28;20070;-69
2022/08/17 04:20:44;;;;;;;40.00;28.75;;;16.30;99.90;;;;;;4972885;28;20403;-67
2022/08/17 04:23:13;;;;;;;38.33;28.02;;;16.30;99.90;;;;;;4973085;28;20031;-68
2022/08/17 04:25:43;;;;;;;33.55;27.80;;;16.20;99.90;;;;;;4973910;28;20565;-68
2022/08/17 04:28:08;;;;;;;42.60;28.35;;;16.20;99.90;;;;;;4974337;28;20475;-68
2022/08/17 04:30:36;;;;;;;36.00;25.98;;;16.20;99.90;;;;;;4973211;28;20043;-68
2022/08/17 04:33:18;;;;;;;35.80;27.50;;;16.10;99.90;;;;;;4974679;28;20035;-68
2022/08/17 04:35:58;;;;;;;37.28;26.70;;;16.10;99.90;;;;;;4974054;28;20034;-68
2022/08/17 04:38:27;;;;;;;35.67;26.50;;;16.10;99.90;;;;;;4966298;28;20027;-68
2022/08/17 04:43:41;;;;;;;33.60;25.95;;;16.10;99.90;;;;;;4969396;28;20081;-68
2022/08/17 04:46:15;;;;;;;34.85;26.02;;;16.10;99.90;;;;;;4976342;28;20038;-68
2022/08/17 04:48:44;;;;;;;34.33;26.27;;;16.10;99.90;;;;;;4972554;28;20050;-68
2022/08/17 04:51:30;;;;;;;36.80;26.92;;;16.10;99.90;;;;;;4974137;28;20049;-68
2022/08/17 04:54:02;;;;;;;39.35;26.63;;;16.10;99.90;;;;;;4966227;28;20027;-67
2022/08/17 04:56:29;;;;;;;36.03;27.63;;;16.10;99.90;;;;;;4982142;28;20452;-61
2022/08/17 04:58:59;;;;;;;31.95;25.75;;;16.20;99.90;;;;;;4980635;28;20122;-69
2022/08/17 05:01:26;;;;;;;35.47;26.75;;;16.20;99.90;;;;;;4968853;28;20099;-69
2022/08/17 05:03:54;;;;;;;33.42;26.00;;;16.30;99.90;;;;;;4969350;28;20073;-68
2022/08/17 05:06:21;;;;;;;35.65;26.05;;;16.30;99.90;;;;;;4970362;28;20031;-69
2022/08/17 05:08:47;;;;;;;39.47;26.48;;;16.30;99.90;;;;;;4973160;28;20085;-69
2022/08/17 05:11:13;;;;;;;39.08;26.30;;;16.30;99.90;;;;;;4977915;28;20043;-70
2022/08/17 05:13:38;;;;;;;35.20;24.98;;;16.40;99.90;;;;;;4973529;28;20039;-69
2022/08/17 05:16:05;;;;;;;35.20;26.85;;;16.30;99.90;;;;;;4974904;28;20037;-69
2022/08/17 05:18:31;;;;;;;34.25;25.90;;;16.40;99.90;;;;;;4973998;28;20103;-70
2022/08/17 05:20:57;;;;;;;34.17;24.75;;;16.40;99.90;;;;;;4971038;28;20090;-68
2022/08/17 05:23:25;;;;;;;32.13;24.10;;;16.40;99.90;;;;;;4961047;28;20031;-68
2022/08/17 05:25:54;;;;;;;29.27;23.40;;;16.40;99.90;;;;;;4968011;28;20109;-68
2022/08/17 05:28:21;;;;;;;31.10;24.27;;;16.40;99.90;;;;;;4955895;28;20019;-70
2022/08/17 05:30:47;;;;;;;34.28;25.90;;;16.50;99.90;;;;;;4971432;28;20041;-70
2022/08/17 05:33:22;;;;;;;38.60;26.63;;;16.50;99.90;;;;;;4978093;28;20711;-69
2022/08/17 05:35:50;;;;;;;33.97;25.05;;;16.50;99.90;;;;;;4977081;28;20117;-68
2022/08/17 05:38:19;;;;;;;37.88;26.02;;;16.50;99.90;;;;;;4971133;28;20554;-68
2022/08/17 05:40:45;;;;;;;33.55;26.10;;;16.50;99.90;;;;;;4978233;28;20034;-68
2022/08/17 05:43:11;;;;;;;33.08;24.13;;;16.50;99.90;;;;;;4965900;28;20057;-68
2022/08/17 05:45:40;;;;;;;32.47;25.35;;;16.50;99.90;;;;;;4974838;28;20026;-69
2022/08/17 05:48:09;;;;;;;32.78;24.35;;;16.50;99.90;;;;;;4979576;28;20038;-69
2022/08/17 05:51:02;;;;;;;35.97;25.80;;;16.50;99.90;;;;;;4966313;28;20030;-69
2022/08/17 05:53:46;;;;;;;36.92;26.17;;;16.50;99.90;;;;;;4972054;28;20054;-69
2022/08/17 05:56:45;;;;;;;35.75;25.33;;;16.60;99.90;;;;;;4975803;28;20027;-69
2022/08/17 05:59:47;;;;;;;32.88;24.85;;;16.90;99.90;;;;;;4972812;28;20043;-68
2022/08/17 06:02:34;;;;;;;32.15;25.30;;;17.10;99.90;;;;;;4971882;28;20066;-69
2022/08/17 06:05:06;;;;;;;35.40;24.27;;;17.20;99.90;;;;;;4958364;28;20463;-70
2022/08/17 06:07:47;;;;;;;37.97;25.80;;;17.30;99.90;;;;;;4961604;28;20513;-70
2022/08/17 06:10:21;;;;;;;30.80;24.15;;;17.30;99.90;;;;;;4966835;28;20042;-69
2022/08/17 06:12:47;;;;;;;34.63;24.42;;;17.40;99.90;;;;;;4971048;28;20105;-70
2022/08/17 06:15:40;;;;;;;30.90;25.05;;;17.50;99.90;;;;;;4966401;28;20027;-70
2022/08/17 06:18:09;;;;;;;34.38;24.83;;;17.50;99.90;;;;;;4976105;28;20034;-70
2022/08/17 06:20:48;;;;;;;31.80;25.05;;;17.60;99.90;;;;;;4971273;28;20031;-70
2022/08/17 06:23:25;;;;;;;33.63;25.45;;;17.70;99.90;;;;;;4965678;28;20042;-69
2022/08/17 06:25:56;;;;;;;34.97;26.25;;;17.70;99.90;;;;;;4971532;28;20051;-69
2022/08/17 06:28:34;;;;;;;35.25;25.48;;;17.80;99.90;;;;;;4971149;28;20023;-70
2022/08/17 06:31:06;;;;;;;33.85;25.52;;;17.80;99.90;;;;;;4977553;28;20501;-70
2022/08/17 06:33:36;;;;;;;32.70;25.05;;;17.90;99.90;;;;;;4973551;28;20122;-71
2022/08/17 06:36:35;;;;;;;30.98;25.15;;;17.90;99.90;;;;;;4978591;28;20490;-69
2022/08/17 06:39:15;;;;;;;32.00;24.67;;;17.90;99.90;;;;;;4968980;28;20035;-69
2022/08/17 06:42:19;;;;;;;34.13;25.17;;;17.80;99.90;;;;;;4970042;28;20027;-69
2022/08/17 06:44:49;;;;;;;31.20;23.90;;;17.90;99.90;;;;;;4958792;28;20061;-69
2022/08/17 06:47:32;;;;;;;33.08;23.48;;;17.90;99.90;;;;;;4973528;28;20049;-69
2022/08/17 06:50:06;;;;;;;32.30;24.38;;;17.90;99.90;;;;;;4978997;28;20031;-70
2022/08/17 06:52:38;;;;;;;39.97;26.35;;;17.80;99.90;;;;;;4964718;28;20058;-71
2022/08/17 06:55:13;;;;;;;35.00;24.75;;;17.80;99.90;;;;;;4972726;28;20109;-69
2022/08/17 06:57:48;;;;;;;33.17;26.17;;;17.90;99.90;;;;;;4970973;28;20495;-70
2022/08/17 07:00:21;;;;;;;35.85;26.25;;;18.00;99.90;;;;;;4964059;28;20035;-69
2022/08/17 07:03:10;;;;;;;30.20;24.73;;;18.00;99.90;;;;;;4970939;28;20049;-70
2022/08/17 07:05:52;;;;;;;89.70;36.95;;;18.00;99.90;;;;;;4973454;28;20019;-70
2022/08/17 07:08:43;;;;;;;39.95;28.10;;;18.10;99.90;;;;;;4971790;28;20027;-68
2022/08/17 07:11:18;;;;;;;33.45;24.90;;;18.20;99.90;;;;;;4969763;28;20114;-69
2022/08/17 07:14:01;;;;;;;39.28;27.27;;;18.30;99.90;;;;;;4971078;28;20037;-68
2022/08/17 07:16:33;;;;;;;35.28;24.67;;;18.40;99.90;;;;;;4970203;28;20027;-69
2022/08/17 07:18:59;;;;;;;34.67;25.80;;;18.60;99.90;;;;;;4970724;28;20031;-69
2022/08/17 07:22:01;;;;;;;35.97;25.13;;;18.60;99.90;;;;;;4972171;28;20096;-69
2022/08/17 07:24:38;;;;;;;32.13;24.98;;;18.60;99.90;;;;;;4982821;28;20117;-69
2022/08/17 07:27:05;;;;;;;30.92;24.58;;;18.70;99.90;;;;;;4976398;28;20100;-70
2022/08/17 07:29:36;;;;;;;34.80;25.67;;;18.70;99.90;;;;;;4977725;28;20078;-69
2022/08/17 07:32:02;;;;;;;38.22;25.88;;;18.70;99.90;;;;;;4975303;28;20047;-70
2022/08/17 07:34:28;;;;;;;32.65;25.95;;;18.70;99.90;;;;;;4970052;28;20121;-70
2022/08/17 07:37:04;;;;;;;39.30;32.13;;;18.80;99.90;;;;;;4978096;28;20793;-69
2022/08/17 07:39:30;;;;;;;32.10;25.00;;;18.90;99.90;;;;;;4983943;28;20027;-69
2022/08/17 07:42:03;;;;;;;28.85;24.08;;;18.90;99.90;;;;;;4974163;28;20445;-69
2022/08/17 07:44:29;;;;;;;32.63;24.15;;;19.00;99.90;;;;;;4979688;28;20018;-70
2022/08/17 07:49:47;;;;;;;30.73;23.05;;;19.20;99.90;;;;;;4975737;28;20066;-71
2022/08/17 07:52:32;;;;;;;27.75;23.15;;;19.40;99.90;;;;;;4971220;28;20474;-69
2022/08/17 07:54:58;;;;;;;28.27;24.00;;;19.50;99.90;;;;;;4981968;28;20039;-69
2022/08/17 07:57:34;;;;;;;33.13;25.30;;;19.60;99.90;;;;;;4975080;28;20041;-69
2022/08/17 07:59:59;;;;;;;32.88;24.10;;;19.70;99.90;;;;;;4971662;28;20030;-68
2022/08/17 08:02:37;;;;;;;27.85;23.92;;;19.80;99.90;;;;;;4973554;28;20038;-68
2022/08/17 08:05:07;;;;;;;31.35;22.58;;;20.00;99.90;;;;;;4979400;28;20030;-68
2022/08/17 08:08:00;;;;;;;32.55;24.48;;;20.10;99.90;;;;;;4980088;28;20410;-70
2022/08/17 08:10:42;;;;;;;30.98;22.45;;;20.20;99.90;;;;;;4976726;28;20433;-69
2022/08/17 08:13:24;;;;;;;29.23;20.20;;;20.40;99.90;;;;;;4972578;28;20050;-68
2022/08/17 08:15:52;;;;;;;23.48;17.67;;;20.60;99.90;;;;;;4977521;28;20031;-69
2022/08/17 08:18:34;;;;;;;19.45;15.90;;;20.80;99.90;;;;;;4980096;28;20031;-69
2022/08/17 08:21:16;;;;;;;19.47;12.37;;;21.00;99.90;;;;;;4977056;28;20394;-68
2022/08/17 08:24:08;;;;;;;12.85;9.40;;;21.10;99.90;;;;;;4974897;28;20046;-69
2022/08/17 08:27:12;;;;;;;10.88;8.02;;;21.10;99.90;;;;;;4967128;28;20043;-68
2022/08/17 08:29:56;;;;;;;13.05;8.25;;;21.20;99.90;;;;;;4974495;28;20033;-69
2022/08/17 08:32:28;;;;;;;13.35;8.30;;;21.10;99.90;;;;;;4969592;28;20039;-70
2022/08/17 08:35:21;;;;;;;8.98;8.10;;;21.20;99.90;;;;;;4971714;28;20031;-69
2022/08/17 08:38:06;;;;;;;6.82;5.78;;;21.30;99.90;;;;;;4980800;28;20037;-70
2022/08/17 08:40:53;;;;;;;8.60;5.22;;;21.30;99.90;;;;;;4982809;28;20050;-68
2022/08/17 08:43:39;;;;;;;7.72;5.45;;;21.40;99.90;;;;;;4959429;28;20050;-69
2022/08/17 08:46:31;;;;;;;11.05;5.93;;;21.50;99.90;;;;;;4978921;28;20451;-69
2022/08/17 08:49:02;;;;;;;7.57;5.75;;;21.40;99.90;;;;;;4978314;28;20035;-70
2022/08/17 08:51:36;;;;;;;12.55;6.65;;;21.30;99.90;;;;;;4973025;28;20073;-70
2022/08/17 08:54:34;;;;;;;9.90;6.25;;;21.20;99.90;;;;;;4973167;28;20117;-69
2022/08/17 08:57:13;;;;;;;10.10;6.25;;;21.10;99.90;;;;;;4976606;28;20461;-70
2022/08/17 08:59:51;;;;;;;10.95;6.22;;;21.00;99.90;;;;;;4968845;28;20418;-70
2022/08/17 09:02:27;;;;;;;10.25;6.60;;;20.90;99.90;;;;;;4976561;28;20473;-70
2022/08/17 09:05:11;;;;;;;12.60;6.75;;;20.80;99.90;;;;;;4961204;28;20065;-69
2022/08/17 09:07:46;;;;;;;19.30;7.32;;;20.70;99.90;;;;;;4977454;28;20467;-69
2022/08/17 09:10:25;;;;;;;10.32;7.95;;;20.70;99.90;;;;;;4971666;28;20031;-70
2022/08/17 09:13:16;;;;;;;15.07;9.52;;;20.70;99.90;;;;;;4981775;28;20221;-70
2022/08/17 09:15:49;;;;;;;13.23;8.70;;;20.70;99.90;;;;;;4980014;28;20043;-70
2022/08/17 09:18:24;;;;;;;11.32;8.02;;;20.80;99.90;;;;;;4964377;28;20051;-70
2022/08/17 09:20:58;;;;;;;13.18;7.35;;;20.90;99.90;;;;;;4981500;28;20089;-70
2022/08/17 09:23:24;;;;;;;9.23;7.47;;;21.10;99.90;;;;;;4973128;28;20033;-70
2022/08/17 09:26:21;;;;;;;12.45;7.03;;;21.20;99.90;;;;;;4977937;28;20034;-69
2022/08/17 09:28:51;;;;;;;9.55;8.18;;;21.20;99.90;;;;;;4972156;28;20117;-70
2022/08/17 09:31:46;;;;;;;10.38;8.35;;;21.20;99.90;;;;;;4970779;28;20045;-67
2022/08/17 09:34:17;;;;;;;11.30;7.57;;;21.10;99.90;;;;;;4965393;28;20490;-67
2022/08/17 09:37:06;;;;;;;8.82;7.90;;;21.10;99.90;;;;;;4980078;28;20077;-69
2022/08/17 09:39:35;;;;;;;8.15;7.25;;;21.10;99.90;;;;;;4974211;28;20034;-68
2022/08/17 09:42:13;;;;;;;11.10;7.85;;;20.90;99.90;;;;;;4971255;28;20045;-69
2022/08/17 09:44:45;;;;;;;12.20;6.97;;;20.90;99.90;;;;;;4984750;28;20125;-69
2022/08/17 09:47:36;;;;;;;12.38;6.72;;;20.90;99.90;;;;;;4974281;28;20070;-69
2022/08/17 09:50:14;;;;;;;7.60;6.40;;;20.80;99.90;;;;;;4981751;28;20166;-69
2022/08/17 09:52:41;;;;;;;10.75;7.20;;;20.90;99.90;;;;;;4972680;28;20047;-70
2022/08/17 09:55:10;;;;;;;12.18;7.35;;;20.80;99.90;;;;;;4967062;28;20118;-71
2022/08/17 09:58:03;;;;;;;11.93;7.53;;;20.80;99.90;;;;;;4976657;28;20438;-69
2022/08/17 10:00:41;;;;;;;10.00;7.13;;;20.80;99.90;;;;;;4961091;28;20394;-69
2022/08/17 10:03:47;;;;;;;12.07;7.35;;;20.90;99.90;;;;;;4971261;28;20050;-71
2022/08/17 10:06:29;;;;;;;14.38;7.75;;;21.10;99.90;;;;;;4980155;28;20023;-69
2022/08/17 10:09:08;;;;;;;17.05;7.75;;;21.30;99.90;;;;;;4970675;28;20378;-70
2022/08/17 10:12:15;;;;;;;17.80;7.43;;;21.40;99.90;;;;;;4978686;28;20049;-70
2022/08/17 10:15:24;;;;;;;16.13;7.75;;;21.40;99.90;;;;;;4959088;28;20445;-71
2022/08/17 10:18:20;;;;;;;17.95;7.70;;;21.30;99.90;;;;;;4964154;28;20050;-70
2022/08/17 10:26:38;;;;;;;21.20;9.77;;;21.00;99.90;;;;;;4970992;28;20061;-70
2022/08/17 10:29:10;;;;;;;23.83;9.55;;;20.80;99.90;;;;;;4973967;28;20126;-72
2022/08/17 10:31:47;;;;;;;19.10;9.50;;;20.70;99.90;;;;;;4962205;28;20101;-72
2022/08/17 10:34:50;;;;;;;16.13;8.75;;;20.60;99.90;;;;;;4967331;28;20614;-72
2022/08/17 10:37:18;;;;;;;19.98;9.90;;;20.60;99.90;;;;;;4973047;28;20418;-72
2022/08/17 10:40:06;;;;;;;19.73;10.13;;;20.50;99.90;;;;;;4971977;28;20038;-72
2022/08/17 10:42:53;;;;;;;18.77;10.32;;;20.50;99.90;;;;;;4976351;28;20074;-71
2022/08/17 10:45:25;;;;;;;21.10;11.60;;;20.40;99.90;;;;;;4971298;28;20050;-71
2022/08/17 10:48:17;;;;;;;;;;;20.50;99.90;;;;;;4973859;28;20038;-72
2022/08/17 10:50:56;;;;;;;21.65;14.18;;;20.50;99.90;;;;;;4972741;28;19905;-71
2022/08/17 10:53:31;;;;;;;23.80;14.10;;;20.30;99.90;;;;;;4976187;28;20035;-70
2022/08/17 10:56:21;;;;;;;27.13;14.85;;;20.30;99.90;;;;;;4965318;28;20054;-71
2022/08/17 10:58:54;;;;;;;22.15;16.33;;;20.30;99.90;;;;;;4969082;28;20038;-71
2022/08/17 11:01:42;;;;;;;28.13;17.05;;;20.20;99.90;;;;;;4969067;28;20042;-71
2022/08/17 11:04:29;;;;;;;33.75;17.63;;;20.30;99.90;;;;;;4966169;28;20089;-70
2022/08/17 11:07:12;;;;;;;28.00;16.77;;;20.40;99.90;;;;;;4976392;28;20035;-71
2022/08/17 11:10:12;;;;;;;28.40;17.10;;;20.50;99.90;;;;;;4965918;28;20030;-71
2022/08/17 11:13:00;;;;;;;24.85;18.35;;;20.70;99.90;;;;;;4966135;28;20125;-71
2022/08/17 11:15:44;;;;;;;29.02;18.98;;;20.90;99.90;;;;;;4982983;28;20058;-70
2022/08/17 11:18:23;;;;;;;33.47;20.52;;;21.10;99.90;;;;;;4977466;28;20481;-70
2022/08/17 11:21:19;;;;;;;29.42;20.83;;;21.20;99.90;;;;;;4972847;28;20502;-70
2022/08/17 11:23:44;;;;;;;28.73;21.05;;;21.20;99.90;;;;;;4961613;28;20053;-70
2022/08/17 11:26:30;;;;;;;31.20;23.05;;;21.30;99.90;;;;;;4984247;28;20023;-69
2022/08/17 11:29:00;;;;;;;39.13;25.58;;;21.20;99.90;;;;;;4978755;28;20035;-69
2022/08/17 11:31:40;;;;;;;36.17;26.38;;;21.20;99.90;;;;;;4982785;28;20035;-70
2022/08/17 11:34:08;;;;;;;38.03;27.15;;;21.10;99.90;;;;;;4966619;28;20118;-70
2022/08/17 11:36:39;;;;;;;38.60;25.45;;;21.00;99.90;;;;;;4971423;28;20107;-68
2022/08/17 11:40:05;;;;;;;42.97;26.92;;;21.00;99.90;;;;;;4969137;28;20038;-69
2022/08/17 11:42:33;;;;;;;40.13;29.05;;;21.00;99.90;;;;;;4946023;29;20055;-71
2022/08/17 11:45:36;;;;;;;40.80;28.70;;;21.00;99.90;;;;;;4947251;29;20565;-70
2022/08/17 11:53:52;;;;;;;40.67;28.65;;;21.10;99.90;;;;;;4940355;28;20630;-70
2022/08/17 11:56:37;;;;;;;42.65;29.05;;;21.00;99.90;;;;;;4935972;28;20126;-70
2022/08/17 11:59:39;;;;;;;35.17;25.50;;;20.90;99.90;;;;;;4948807;29;20031;-70
2022/08/17 12:02:37;;;;;;;29.15;20.98;;;20.70;99.90;;;;;;4950600;28;20035;-71
2022/08/17 12:08:37;;;;;;;4.40;2.17;;;19.80;99.90;;;;;;4947396;28;20046;-71
2022/08/17 12:11:07;;;;;;;6.60;2.35;;;18.60;99.90;;;;;;4938445;29;20098;-74
2022/08/17 12:13:47;;;;;;;8.73;4.05;;;17.80;99.90;;;;;;4948516;29;20035;-76
2022/08/17 12:16:19;;;;;;;9.80;1.88;;;17.40;99.90;;;;;;4959190;28;20117;-74
2022/08/17 12:18:57;;;;;;;3.90;1.83;;;17.20;99.90;;;;;;4980184;28;20542;-72
2022/08/17 12:21:49;;;;;;;5.05;1.80;;;17.00;99.90;;;;;;4970372;28;20264;-74
2022/08/17 12:24:21;;;;;;;12.02;2.55;;;16.90;99.90;;;;;;4963978;28;20063;-72
2022/08/17 12:26:54;;;;;;;4.43;2.00;;;16.70;99.90;;;;;;4972299;28;20134;-72
2022/08/17 12:29:19;;;;;;;6.00;2.15;;;16.60;99.90;;;;;;4970804;28;20078;-73
2022/08/17 12:31:49;;;;;;;11.38;3.78;;;16.50;99.90;;;;;;4971809;28;20526;-76
2022/08/17 12:34:22;;;;;;;11.38;3.72;;;16.70;99.90;;;;;;4973654;28;20027;-76
2022/08/17 12:36:50;;;;;;;6.30;2.70;;;16.70;99.90;;;;;;4973299;28;20117;-79
2022/08/17 12:39:26;;;;;;;6.57;2.38;;;16.70;99.90;;;;;;4973810;28;20048;-75
2022/08/17 12:41:55;;;;;;;7.70;1.85;;;16.70;99.90;;;;;;4972989;28;20038;-72
2022/08/17 12:44:30;;;;;;;7.85;2.97;;;16.60;99.90;;;;;;4983124;28;20030;-77
2022/08/17 12:47:16;;;;;;;7.53;3.17;;;16.70;99.90;;;;;;4974821;28;20081;-74
2022/08/17 12:49:44;;;;;;;5.22;2.50;;;16.80;99.90;;;;;;4972430;28;20031;-72
2022/08/17 12:52:15;;;;;;;8.65;2.80;;;16.80;99.90;;;;;;4976880;28;20443;-72
2022/08/17 12:54:49;;;;;;;13.07;4.00;;;16.80;99.90;;;;;;4972229;28;20027;-74
2022/08/17 12:57:23;;;;;;;7.20;2.80;;;16.90;99.90;;;;;;4964255;28;20481;-73
2022/08/17 13:00:10;;;;;;;10.68;3.00;;;16.90;99.90;;;;;;4971534;28;20074;-73
2022/08/17 13:02:51;;;;;;;8.07;2.80;;;16.90;99.90;;;;;;4966589;28;20042;-73
2022/08/17 13:05:21;;;;;;;4.63;2.10;;;16.80;99.90;;;;;;4967961;28;20110;-73
2022/08/17 13:07:47;;;;;;;6.88;2.80;;;16.80;99.90;;;;;;4972754;28;20496;-72
2022/08/17 13:10:18;;;;;;;11.68;2.95;;;16.80;99.90;;;;;;4973871;28;20038;-73
2022/08/17 13:12:44;;;;;;;3.95;2.70;;;16.90;99.90;;;;;;4973480;28;20034;-73
2022/08/17 13:15:44;;;;;;;7.55;3.03;;;16.80;99.90;;;;;;4972742;28;20030;-72
2022/08/17 13:18:42;;;;;;;4.57;2.53;;;16.90;99.90;;;;;;4971741;28;20042;-73
2022/08/17 13:21:29;;;;;;;3.33;1.80;;;16.80;99.90;;;;;;4961379;28;20039;-73
2022/08/17 13:24:16;;;;;;;10.65;2.72;;;16.70;99.90;;;;;;4965983;28;20066;-73
2022/08/17 13:26:47;;;;;;;7.90;2.60;;;16.70;99.90;;;;;;4970223;28;20048;-72
2022/08/17 13:29:30;;;;;;;6.03;2.97;;;16.80;99.90;;;;;;4970439;28;20085;-72
2022/08/17 13:32:05;;;;;;;8.52;5.93;;;16.70;99.90;;;;;;4972869;28;20047;-71
2022/08/17 13:34:34;;;;;;;8.73;3.63;;;16.80;99.90;;;;;;4969789;28;20042;-73
2022/08/17 13:39:49;;;;;;;11.95;4.00;;;16.80;99.90;;;;;;4973255;28;20019;-73
2022/08/17 13:42:29;;;;;;;7.68;2.88;;;16.80;99.90;;;;;;4972267;28;20520;-74